Villa Clarita, Puerto Rico
Current Conditions -  °F | °C
As of 3:53 PM on Sunday 25 Jan 2015 (Local Time) from TJNR Reporting Station
Few Clouds Few Clouds  
Wind Chill: 81°   Ceiling: Unl
Heat Index: 84°   Visibility: 10mi
Dew Point: 70°   Wind: 10mph
Humidity: 69%   Direction: 110°ESE
Pressure: 30"   Gusts: NA
Location:  18.3304°N, 65.6573°W
Report Text: TJNR 251953Z AUTO 11009KT 10SM FEW038 27/21 A3000 RMK AO2 SLP159 T02720211 $
Loading
Personal Weather Stations






























Interactive Weather Map New forecast layout! Learn more

10-Day Weather Forecast

Advertisements
Track Severe Weather on mobile